Time;durP1;ratioP1;P1;durP2;ratioP2;P2;SDS_P1;SDS_P2;PMS_P1;PMS_P2;Temp;Humidity;BMP_temperature;BMP_pressure;BME280_temperature;BME280_humidity;BME280_pressure;Samples;Min_cycle;Max_cycle;Signal;HPM_P1;HPM_P2
2023/09/13 00:01:33;;;;;;;38.00;18.83;;;19.70;99.90;;;;;;5031303;28;20034;-53
2023/09/13 00:03:59;;;;;;;35.17;18.13;;;19.70;99.90;;;;;;5031522;28;20037;-53
2023/09/13 00:06:25;;;;;;;33.35;17.35;;;19.70;99.90;;;;;;5031146;28;20026;-53
2023/09/13 00:08:51;;;;;;;36.72;18.58;;;19.70;99.90;;;;;;5030771;28;20116;-51
2023/09/13 00:11:16;;;;;;;35.63;18.40;;;19.70;99.90;;;;;;5031402;28;20121;-52
2023/09/13 00:13:42;;;;;;;32.05;17.20;;;19.80;99.90;;;;;;5031311;28;20057;-51
2023/09/13 00:16:08;;;;;;;33.63;18.77;;;19.80;99.90;;;;;;5031231;28;20025;-52
2023/09/13 00:18:34;;;;;;;35.05;16.45;;;19.80;99.90;;;;;;5030719;28;20542;-49
2023/09/13 00:20:59;;;;;;;30.42;16.77;;;19.80;99.90;;;;;;5031163;28;20473;-53
2023/09/13 00:23:25;;;;;;;35.60;18.08;;;19.80;99.90;;;;;;5030906;28;20069;-54
2023/09/13 00:25:50;;;;;;;32.80;17.52;;;19.80;99.90;;;;;;5031243;28;20049;-51
2023/09/13 00:28:16;;;;;;;31.50;17.20;;;19.70;99.90;;;;;;5030777;28;20034;-50
2023/09/13 00:30:42;;;;;;;34.38;16.73;;;19.70;99.90;;;;;;5013169;28;20029;-52
2023/09/13 00:33:08;;;;;;;31.25;17.98;;;19.70;99.90;;;;;;5013303;28;20394;-49
2023/09/13 00:35:33;;;;;;;32.45;16.60;;;19.70;99.90;;;;;;5013268;28;20025;-52
2023/09/13 00:37:59;;;;;;;33.22;16.98;;;19.60;99.90;;;;;;5013045;28;20493;-49
2023/09/13 00:40:25;;;;;;;31.13;18.08;;;19.70;99.90;;;;;;5013064;28;20038;-49
2023/09/13 00:42:50;;;;;;;33.00;16.35;;;19.70;99.90;;;;;;5031065;28;20033;-51
2023/09/13 00:45:16;;;;;;;35.10;17.63;;;19.70;99.90;;;;;;5031350;28;20042;-50
2023/09/13 00:47:43;;;;;;;32.22;17.77;;;19.60;99.90;;;;;;5013160;28;20501;-50
2023/09/13 00:50:12;;;;;;;34.67;16.23;;;19.60;99.90;;;;;;5012976;28;20033;-51
2023/09/13 00:52:39;;;;;;;31.38;16.67;;;19.60;99.90;;;;;;5013713;28;20389;-49
2023/09/13 00:55:07;;;;;;;31.77;16.70;;;19.60;99.90;;;;;;5013617;28;20025;-49
2023/09/13 00:57:34;;;;;;;29.98;16.42;;;19.60;99.90;;;;;;5013356;28;20037;-51
2023/09/13 01:00:08;;;;;;;32.10;16.88;;;19.60;99.90;;;;;;5013419;28;20040;-49
2023/09/13 01:02:35;;;;;;;33.33;16.58;;;19.60;99.90;;;;;;5014931;28;20512;-51
2023/09/13 01:05:01;;;;;;;31.20;16.42;;;19.60;99.90;;;;;;5034050;28;20029;-50
2023/09/13 01:07:27;;;;;;;32.90;17.25;;;19.60;99.90;;;;;;5018334;28;20083;-51
2023/09/13 01:09:53;;;;;;;32.80;17.02;;;19.60;99.90;;;;;;5018096;28;20022;-49
2023/09/13 01:12:18;;;;;;;33.03;17.15;;;19.70;99.90;;;;;;5034408;28;20109;-53
2023/09/13 01:14:44;;;;;;;36.25;17.23;;;19.70;99.90;;;;;;5016641;28;20116;-53
2023/09/13 01:17:41;;;;;;;33.60;16.73;;;19.70;99.90;;;;;;5016594;28;20044;-54
2023/09/13 01:20:16;;;;;;;32.67;16.35;;;19.70;99.90;;;;;;5016248;28;20033;-53
2023/09/13 01:23:20;;;;;;;32.85;17.33;;;19.60;99.90;;;;;;5034294;28;20397;-52
2023/09/13 01:25:54;;;;;;;38.25;17.80;;;19.60;99.90;;;;;;5034320;28;20033;-54
2023/09/13 01:28:39;;;;;;;31.33;14.95;;;19.60;99.90;;;;;;5034190;28;20041;-51
2023/09/13 01:31:08;;;;;;;35.00;16.30;;;19.50;99.90;;;;;;5034207;28;20033;-53
2023/09/13 01:33:34;;;;;;;35.83;18.35;;;19.60;99.90;;;;;;5016296;28;20087;-53
2023/09/13 01:36:01;;;;;;;41.15;17.90;;;19.60;99.90;;;;;;5016421;28;20470;-53
2023/09/13 01:38:28;;;;;;;38.08;18.10;;;19.60;99.90;;;;;;5015760;28;20025;-51
2023/09/13 01:41:04;;;;;;;35.55;16.90;;;19.60;99.90;;;;;;5016132;28;20103;-49
2023/09/13 01:43:31;;;;;;;40.33;18.45;;;19.60;99.90;;;;;;5016028;28;20033;-53
2023/09/13 01:45:59;;;;;;;35.92;18.42;;;19.60;99.90;;;;;;5015973;28;20432;-51
2023/09/13 01:48:25;;;;;;;37.72;18.55;;;19.60;99.90;;;;;;5015538;28;20425;-50
2023/09/13 01:50:52;;;;;;;34.78;17.80;;;19.70;99.90;;;;;;5015950;28;20029;-53
2023/09/13 01:53:18;;;;;;;43.53;18.85;;;19.70;99.90;;;;;;5015967;28;20030;-54
2023/09/13 01:55:44;;;;;;;34.10;16.77;;;19.70;99.90;;;;;;5015727;28;20628;-50
2023/09/13 01:58:09;;;;;;;31.95;17.00;;;19.70;99.90;;;;;;5015291;28;20029;-53
2023/09/13 02:00:35;;;;;;;34.92;17.45;;;19.70;99.90;;;;;;5015427;28;20437;-50
2023/09/13 02:03:01;;;;;;;32.70;16.13;;;19.60;99.90;;;;;;5015424;28;20041;-51
2023/09/13 02:05:26;;;;;;;37.45;17.80;;;19.60;99.90;;;;;;5018664;28;20393;-53
2023/09/13 02:07:52;;;;;;;35.30;15.98;;;19.50;99.90;;;;;;5015291;28;20036;-50
2023/09/13 02:10:17;;;;;;;38.63;16.70;;;19.60;99.90;;;;;;5031782;28;20033;-51
2023/09/13 02:12:43;;;;;;;35.00;16.10;;;19.60;99.90;;;;;;5031861;28;20025;-51
2023/09/13 02:15:09;;;;;;;32.17;16.42;;;19.60;99.90;;;;;;5031587;28;20041;-53
2023/09/13 02:17:35;;;;;;;33.08;16.58;;;19.60;99.90;;;;;;5014031;28;20033;-52
2023/09/13 02:20:00;;;;;;;31.08;16.17;;;19.50;99.90;;;;;;5032817;28;20025;-54
2023/09/13 02:22:26;;;;;;;34.80;16.60;;;19.40;99.90;;;;;;5030771;28;20038;-52
2023/09/13 02:24:52;;;;;;;36.75;16.23;;;19.50;99.90;;;;;;5031894;28;20029;-53
2023/09/13 02:27:17;;;;;;;34.20;17.13;;;19.40;99.90;;;;;;5032650;28;20104;-54
2023/09/13 02:29:43;;;;;;;37.85;17.27;;;19.40;99.90;;;;;;5032406;28;20059;-52
2023/09/13 02:32:09;;;;;;;39.50;16.95;;;19.40;99.90;;;;;;5031475;28;20037;-51
2023/09/13 02:34:35;;;;;;;35.40;16.63;;;19.40;99.90;;;;;;5031192;28;20060;-53
2023/09/13 02:37:01;;;;;;;33.03;16.20;;;19.40;99.90;;;;;;5014599;28;20021;-50
2023/09/13 02:39:37;;;;;;;38.22;16.27;;;19.50;99.90;;;;;;5032258;28;20033;-53
2023/09/13 02:42:04;;;;;;;32.78;16.40;;;19.50;99.90;;;;;;5014977;28;20034;-53
2023/09/13 02:44:31;;;;;;;38.35;17.60;;;19.40;99.90;;;;;;5032454;28;20022;-51
2023/09/13 02:46:57;;;;;;;44.72;18.63;;;19.40;99.90;;;;;;5031181;28;20029;-54
2023/09/13 02:49:24;;;;;;;38.95;17.55;;;19.30;99.90;;;;;;5030630;28;20029;-53
2023/09/13 02:51:51;;;;;;;38.40;16.75;;;19.30;99.90;;;;;;5031041;28;20025;-53
2023/09/13 02:54:17;;;;;;;41.50;18.08;;;19.40;99.90;;;;;;5031000;28;20026;-50
2023/09/13 02:56:43;;;;;;;38.65;17.70;;;19.40;99.90;;;;;;5032339;28;20452;-53
2023/09/13 02:59:09;;;;;;;45.38;18.70;;;19.40;99.90;;;;;;5030597;28;20044;-49
2023/09/13 03:01:35;;;;;;;42.88;18.10;;;19.50;99.90;;;;;;5032224;28;20030;-55
2023/09/13 03:04:00;;;;;;;43.35;19.50;;;19.50;99.90;;;;;;5030821;28;20393;-53
2023/09/13 03:06:26;;;;;;;43.60;18.20;;;19.50;99.90;;;;;;5031010;28;20083;-51
2023/09/13 03:08:53;;;;;;;44.03;18.95;;;19.40;99.90;;;;;;5030213;28;20026;-52
2023/09/13 03:11:19;;;;;;;42.47;19.08;;;19.40;99.90;;;;;;5031999;28;20423;-55
2023/09/13 03:13:45;;;;;;;44.53;19.13;;;19.40;99.90;;;;;;5030531;28;20028;-54
2023/09/13 03:16:16;;;;;;;41.72;19.25;;;19.40;99.90;;;;;;5030537;28;20029;-52
2023/09/13 03:18:43;;;;;;;44.80;18.40;;;19.40;99.90;;;;;;5030181;28;20040;-52
2023/09/13 03:21:11;;;;;;;42.30;19.58;;;19.30;99.90;;;;;;5030470;28;20033;-51
2023/09/13 03:23:41;;;;;;;44.08;18.48;;;19.30;99.90;;;;;;5030622;28;20419;-53
2023/09/13 03:26:22;;;;;;;38.95;18.13;;;19.30;99.90;;;;;;5030449;28;20472;-53
2023/09/13 03:28:50;;;;;;;42.40;18.40;;;19.30;99.90;;;;;;5029544;28;20041;-54
2023/09/13 03:31:18;;;;;;;43.03;18.05;;;19.20;99.90;;;;;;5030289;28;20022;-55
2023/09/13 03:33:46;;;;;;;43.22;18.15;;;19.20;99.90;;;;;;5030245;28;20029;-52
2023/09/13 03:36:13;;;;;;;47.60;19.98;;;19.10;99.90;;;;;;5031739;28;20029;-54
2023/09/13 03:38:42;;;;;;;43.90;19.50;;;19.10;99.90;;;;;;5013242;28;20127;-51
2023/09/13 03:41:12;;;;;;;43.47;18.58;;;19.20;99.90;;;;;;5030394;28;20118;-54
2023/09/13 03:43:38;;;;;;;50.35;20.17;;;19.10;99.90;;;;;;5030018;28;20048;-55
2023/09/13 03:46:06;;;;;;;43.60;18.58;;;19.10;99.90;;;;;;5013738;28;20059;-55
2023/09/13 03:48:36;;;;;;;37.20;17.83;;;19.10;99.90;;;;;;5029545;28;20036;-55
2023/09/13 03:51:01;;;;;;;42.75;18.50;;;19.10;99.90;;;;;;5030063;28;20359;-50
2023/09/13 03:53:27;;;;;;;54.40;23.23;;;19.20;99.90;;;;;;5030172;28;20036;-54
2023/09/13 03:55:54;;;;;;;45.22;18.70;;;19.30;99.90;;;;;;5029898;28;20022;-53
2023/09/13 03:58:20;;;;;;;37.58;18.60;;;19.20;99.90;;;;;;5029723;28;20037;-52
2023/09/13 04:00:46;;;;;;;41.65;18.48;;;19.20;99.90;;;;;;5029834;28;20068;-53
2023/09/13 04:03:13;;;;;;;38.10;17.15;;;19.20;99.90;;;;;;5031419;28;20087;-53
2023/09/13 04:05:39;;;;;;;48.10;19.38;;;19.10;99.90;;;;;;5030145;28;20068;-54
2023/09/13 04:08:04;;;;;;;46.92;19.58;;;19.20;99.90;;;;;;5029718;28;20064;-55
2023/09/13 04:10:30;;;;;;;41.90;18.92;;;19.10;99.90;;;;;;5013419;28;20068;-54
2023/09/13 04:12:56;;;;;;;47.15;19.45;;;19.10;99.90;;;;;;5030002;28;20908;-54
2023/09/13 04:15:21;;;;;;;48.28;20.63;;;19.00;99.90;;;;;;5029927;28;20068;-55
2023/09/13 04:17:47;;;;;;;53.55;22.13;;;19.00;99.90;;;;;;5029727;28;20036;-51
2023/09/13 04:20:13;;;;;;;47.78;21.50;;;19.00;99.90;;;;;;5029768;28;20029;-54
2023/09/13 04:22:38;;;;;;;47.88;20.83;;;19.00;99.90;;;;;;5029809;28;20090;-55
2023/09/13 04:25:05;;;;;;;47.90;21.02;;;19.00;99.90;;;;;;5029703;28;20029;-54
2023/09/13 04:27:31;;;;;;;58.67;23.60;;;19.00;99.90;;;;;;5029579;28;20462;-54
2023/09/13 04:29:57;;;;;;;48.88;19.85;;;19.10;99.90;;;;;;5029564;28;20026;-53
2023/09/13 04:32:24;;;;;;;48.53;20.95;;;19.00;99.90;;;;;;5029600;28;20029;-55
2023/09/13 04:34:50;;;;;;;50.88;22.80;;;19.00;99.90;;;;;;5031193;28;20022;-55
2023/09/13 04:37:16;;;;;;;47.95;21.45;;;19.10;99.90;;;;;;5029588;28;20036;-55
2023/09/13 04:39:42;;;;;;;53.10;21.95;;;19.20;99.90;;;;;;5030854;28;20410;-54
2023/09/13 04:42:08;;;;;;;58.25;24.27;;;19.10;99.90;;;;;;5035201;28;20032;-54
2023/09/13 04:44:34;;;;;;;54.25;22.45;;;19.10;99.90;;;;;;5035093;28;20029;-54
2023/09/13 04:47:00;;;;;;;56.63;24.08;;;19.10;99.90;;;;;;5017158;28;20041;-55
2023/09/13 04:49:27;;;;;;;51.90;21.98;;;19.10;99.90;;;;;;5033029;28;20359;-53
2023/09/13 04:51:54;;;;;;;53.58;21.08;;;19.10;99.90;;;;;;5034774;28;20036;-55
2023/09/13 04:54:23;;;;;;;55.75;21.42;;;19.10;99.90;;;;;;5033495;28;20056;-53
2023/09/13 04:56:50;;;;;;;50.00;22.25;;;19.20;99.90;;;;;;5033266;28;20052;-53
2023/09/13 04:59:16;;;;;;;48.33;21.05;;;19.20;99.90;;;;;;5016138;28;20112;-52
2023/09/13 05:01:43;;;;;;;42.55;18.95;;;19.10;99.90;;;;;;5033099;28;20036;-51
2023/09/13 05:04:09;;;;;;;40.00;17.90;;;19.00;99.90;;;;;;5016845;28;20116;-50
2023/09/13 05:06:34;;;;;;;42.33;17.67;;;19.00;99.90;;;;;;5034602;28;20069;-50
2023/09/13 05:09:00;;;;;;;39.65;18.30;;;19.00;99.90;;;;;;5034089;28;20119;-51
2023/09/13 05:11:25;;;;;;;44.40;19.45;;;18.90;99.90;;;;;;5034249;28;20038;-53
2023/09/13 05:14:14;;;;;;;42.28;17.58;;;18.90;99.90;;;;;;5034254;28;20037;-52
2023/09/13 05:16:39;;;;;;;44.03;18.75;;;18.90;99.90;;;;;;5034253;28;20497;-51
2023/09/13 05:19:05;;;;;;;46.75;19.17;;;18.90;99.90;;;;;;5033658;28;20124;-52
2023/09/13 05:21:31;;;;;;;42.72;18.77;;;18.90;99.90;;;;;;5034165;28;20048;-51
2023/09/13 05:23:57;;;;;;;45.33;19.98;;;18.90;99.90;;;;;;5034092;28;20033;-54
2023/09/13 05:26:22;;;;;;;44.90;19.52;;;18.80;99.90;;;;;;5016442;28;20040;-54
2023/09/13 05:28:48;;;;;;;41.53;18.52;;;18.80;99.90;;;;;;5033576;28;20363;-53
2023/09/13 05:31:14;;;;;;;46.38;18.88;;;18.90;99.90;;;;;;5034022;28;20099;-52
2023/09/13 05:33:40;;;;;;;42.65;17.90;;;19.00;99.90;;;;;;5034052;28;20033;-50
2023/09/13 05:36:09;;;;;;;41.90;19.45;;;18.90;99.90;;;;;;5034206;28;20458;-50
2023/09/13 05:38:35;;;;;;;45.33;19.10;;;19.00;99.90;;;;;;5033693;28;20044;-50
2023/09/13 05:41:10;;;;;;;40.03;17.90;;;19.00;99.90;;;;;;5033998;28;20037;-49
2023/09/13 05:43:38;;;;;;;46.15;19.25;;;19.10;99.90;;;;;;5016197;28;20069;-48
2023/09/13 05:46:05;;;;;;;42.67;19.07;;;19.00;99.90;;;;;;5033566;28;20063;-50
2023/09/13 05:48:31;;;;;;;49.85;20.33;;;18.90;99.90;;;;;;5033585;28;20032;-49
2023/09/13 05:50:56;;;;;;;44.97;19.38;;;18.90;99.90;;;;;;5033440;28;20389;-50
2023/09/13 05:53:22;;;;;;;48.63;20.90;;;18.90;99.90;;;;;;5034094;28;20029;-49
2023/09/13 05:55:48;;;;;;;47.47;18.98;;;18.90;99.90;;;;;;5033617;28;20033;-49
2023/09/13 05:58:13;;;;;;;43.47;18.17;;;18.90;99.90;;;;;;5016689;28;20087;-49
2023/09/13 06:00:43;;;;;;;46.25;19.75;;;18.90;99.90;;;;;;5034727;28;20612;-50
2023/09/13 06:03:10;;;;;;;45.75;19.33;;;18.80;99.90;;;;;;5034876;28;20037;-49
2023/09/13 06:05:35;;;;;;;46.35;19.30;;;18.90;99.90;;;;;;5034725;28;20425;-52
2023/09/13 06:08:01;;;;;;;46.70;19.23;;;18.90;99.90;;;;;;5032377;28;20027;-55
2023/09/13 06:10:27;;;;;;;52.50;19.75;;;18.90;99.90;;;;;;5032906;28;20025;-55
2023/09/13 06:12:53;;;;;;;44.55;18.48;;;18.90;99.90;;;;;;5015274;28;20366;-54
2023/09/13 06:15:19;;;;;;;41.20;18.27;;;18.90;99.90;;;;;;5033397;28;20351;-53
2023/09/13 06:17:44;;;;;;;42.40;18.33;;;18.90;99.90;;;;;;5033037;28;20028;-54
2023/09/13 06:20:10;;;;;;;43.67;18.98;;;19.00;99.90;;;;;;5031722;28;20482;-53
2023/09/13 06:22:36;;;;;;;50.70;19.10;;;19.00;99.90;;;;;;5032393;28;20540;-55
2023/09/13 06:25:02;;;;;;;45.08;18.05;;;18.90;99.90;;;;;;5033195;28;20386;-52
2023/09/13 06:27:28;;;;;;;50.60;18.73;;;19.00;99.90;;;;;;5033093;28;20029;-55
2023/09/13 06:29:54;;;;;;;45.97;19.73;;;19.00;99.90;;;;;;5032650;28;20033;-54
2023/09/13 06:32:19;;;;;;;45.03;18.75;;;19.00;99.90;;;;;;5033113;28;20124;-54
2023/09/13 06:34:46;;;;;;;42.67;16.70;;;19.10;99.90;;;;;;5032964;28;20075;-52
2023/09/13 06:37:12;;;;;;;41.22;17.70;;;19.10;99.90;;;;;;5032841;28;20040;-54
2023/09/13 06:39:37;;;;;;;40.20;17.65;;;19.10;99.90;;;;;;5032124;28;20021;-54
2023/09/13 06:42:04;;;;;;;39.80;15.77;;;19.20;99.90;;;;;;5032471;28;20025;-55
2023/09/13 06:44:29;;;;;;;42.35;18.30;;;19.20;99.90;;;;;;5032817;28;20482;-53
2023/09/13 06:46:55;;;;;;;41.00;17.25;;;19.20;99.90;;;;;;5032987;28;20109;-55
2023/09/13 06:49:21;;;;;;;39.75;17.35;;;19.20;99.90;;;;;;5032495;28;20068;-55
2023/09/13 06:51:46;;;;;;;41.10;18.15;;;19.10;99.90;;;;;;5032631;28;20021;-52
2023/09/13 06:54:12;;;;;;;43.53;18.10;;;19.10;99.90;;;;;;5015055;28;20029;-55
2023/09/13 06:56:40;;;;;;;40.08;18.00;;;19.10;99.90;;;;;;5032769;28;20033;-54
2023/09/13 06:59:06;;;;;;;44.35;17.73;;;19.10;99.90;;;;;;5032011;28;20029;-53
2023/09/13 07:01:31;;;;;;;40.10;17.85;;;19.10;99.90;;;;;;5014380;28;20032;-55
2023/09/13 07:03:57;;;;;;;42.40;17.33;;;19.20;99.90;;;;;;5031698;28;20029;-54
2023/09/13 07:06:23;;;;;;;45.00;18.55;;;19.10;99.90;;;;;;5032121;28;20029;-52
2023/09/13 07:08:49;;;;;;;42.47;18.02;;;19.20;99.90;;;;;;5034771;28;20136;-55
2023/09/13 07:11:16;;;;;;;40.72;17.60;;;19.30;99.90;;;;;;5034128;28;20065;-55
2023/09/13 07:13:42;;;;;;;41.28;18.20;;;19.40;99.90;;;;;;5036023;28;20034;-55
2023/09/13 07:16:08;;;;;;;41.60;16.80;;;19.30;99.90;;;;;;5035988;28;20036;-56
2023/09/13 07:18:34;;;;;;;43.78;17.45;;;19.40;99.90;;;;;;5033893;28;20021;-55
2023/09/13 07:21:00;;;;;;;37.85;17.27;;;19.40;99.90;;;;;;5033100;28;20560;-52
2023/09/13 07:23:26;;;;;;;40.00;17.42;;;19.50;99.90;;;;;;5033498;28;20466;-53
2023/09/13 07:25:52;;;;;;;35.83;16.17;;;19.50;99.90;;;;;;5031942;28;20029;-55
2023/09/13 07:28:17;;;;;;;35.90;16.65;;;19.50;99.90;;;;;;5032946;28;20021;-52
2023/09/13 07:30:44;;;;;;;37.95;15.85;;;19.50;99.90;;;;;;5032474;28;20021;-56
2023/09/13 07:33:10;;;;;;;37.92;16.90;;;19.40;99.90;;;;;;5033100;28;20167;-56
2023/09/13 07:35:35;;;;;;;41.60;16.73;;;19.50;99.90;;;;;;5032760;28;20108;-55
2023/09/13 07:38:01;;;;;;;37.67;17.52;;;19.50;99.90;;;;;;5032681;28;20415;-54
2023/09/13 07:40:26;;;;;;;36.47;16.42;;;19.60;99.90;;;;;;5032913;28;20116;-52
2023/09/13 07:42:52;;;;;;;36.42;15.40;;;19.50;99.90;;;;;;5032753;28;20051;-53
2023/09/13 07:45:18;;;;;;;40.30;16.25;;;19.50;99.90;;;;;;5016696;28;20040;-55
2023/09/13 07:47:43;;;;;;;33.72;17.23;;;19.60;99.90;;;;;;5033125;28;20036;-56
2023/09/13 07:50:29;;;;;;;36.42;15.23;;;19.70;99.90;;;;;;5031735;28;20056;-54
2023/09/13 07:52:54;;;;;;;32.55;14.30;;;19.80;99.90;;;;;;5030917;28;20040;-55
2023/09/13 07:55:20;;;;;;;31.65;14.40;;;19.80;99.90;;;;;;5030601;28;20030;-55
2023/09/13 07:57:46;;;;;;;34.53;15.45;;;19.80;99.90;;;;;;5030494;28;20025;-53
2023/09/13 08:00:12;;;;;;;30.92;15.00;;;19.70;99.90;;;;;;5012743;28;20034;-53
2023/09/13 08:02:38;;;;;;;34.95;15.70;;;19.70;99.90;;;;;;5012467;28;20030;-55
2023/09/13 08:05:04;;;;;;;33.97;14.43;;;19.60;99.90;;;;;;5030547;28;20036;-55
2023/09/13 08:07:29;;;;;;;31.95;14.95;;;19.60;99.90;;;;;;5030831;28;20053;-54
2023/09/13 08:09:55;;;;;;;29.98;14.18;;;19.60;99.90;;;;;;5030559;28;20469;-55
2023/09/13 08:12:21;;;;;;;35.22;14.38;;;19.60;99.90;;;;;;5031996;28;20038;-55
2023/09/13 08:14:47;;;;;;;32.50;14.15;;;19.60;99.90;;;;;;5034384;28;20038;-56
2023/09/13 08:17:12;;;;;;;33.00;13.13;;;19.60;99.90;;;;;;5035322;28;20055;-56
2023/09/13 08:19:38;;;;;;;27.40;13.43;;;19.70;99.90;;;;;;5034581;28;20033;-55
2023/09/13 08:22:04;;;;;;;30.10;12.95;;;19.80;99.90;;;;;;5036117;28;20260;-53
2023/09/13 08:24:32;;;;;;;30.30;12.93;;;19.80;99.90;;;;;;5035511;28;20045;-54
2023/09/13 08:26:58;;;;;;;27.52;11.48;;;19.80;99.90;;;;;;5034704;28;20109;-55
2023/09/13 08:29:23;;;;;;;24.20;11.38;;;19.90;99.90;;;;;;5033709;28;20116;-56
2023/09/13 08:31:49;;;;;;;30.77;12.05;;;20.00;99.90;;;;;;5034317;28;20033;-54
2023/09/13 08:34:14;;;;;;;26.77;11.48;;;20.10;99.90;;;;;;5034468;28;20029;-52
2023/09/13 08:36:40;;;;;;;26.52;11.27;;;20.10;99.90;;;;;;5034205;28;20393;-54
2023/09/13 08:39:06;;;;;;;27.40;13.23;;;20.00;99.90;;;;;;5033434;28;20083;-54
2023/09/13 08:41:32;;;;;;;26.45;11.63;;;20.00;99.90;;;;;;5034811;28;20072;-52
2023/09/13 08:43:59;;;;;;;38.35;18.77;;;20.00;99.90;;;;;;5033950;28;20061;-53
2023/09/13 08:46:26;;;;;;;29.30;12.57;;;20.10;99.90;;;;;;5032190;28;20044;-51
2023/09/13 08:48:53;;;;;;;33.55;13.55;;;20.20;99.90;;;;;;5033489;28;20037;-56
2023/09/13 08:51:20;;;;;;;28.23;12.27;;;20.30;99.90;;;;;;5034124;28;20095;-55
2023/09/13 08:53:47;;;;;;;27.90;12.27;;;20.40;99.90;;;;;;5034233;28;20471;-53
2023/09/13 08:56:13;;;;;;;27.92;12.98;;;20.40;99.90;;;;;;5033759;28;20562;-56
2023/09/13 08:58:39;;;;;;;28.60;13.10;;;20.40;99.90;;;;;;5033406;28;20402;-56
2023/09/13 09:01:09;;;;;;;24.10;11.25;;;20.40;99.90;;;;;;5033715;28;20030;-55
2023/09/13 09:03:35;;;;;;;25.73;12.25;;;20.40;99.90;;;;;;5033984;28;20038;-54
2023/09/13 09:06:01;;;;;;;29.05;12.85;;;20.40;99.90;;;;;;5033724;28;20245;-55
2023/09/13 09:08:28;;;;;;;23.52;11.85;;;20.30;99.90;;;;;;5033025;28;20390;-53
2023/09/13 09:10:57;;;;;;;26.38;12.52;;;20.40;99.90;;;;;;5033635;28;20029;-55
2023/09/13 09:13:25;;;;;;;26.05;12.52;;;20.50;99.90;;;;;;5033537;28;20498;-55
2023/09/13 09:15:52;;;;;;;26.27;12.27;;;20.50;99.90;;;;;;5033534;28;20026;-52
2023/09/13 09:18:20;;;;;;;26.65;11.80;;;20.50;99.90;;;;;;5031833;28;20114;-53
2023/09/13 09:20:46;;;;;;;19.70;10.83;;;20.40;99.90;;;;;;5033390;28;20087;-51
2023/09/13 09:23:13;;;;;;;19.88;10.20;;;20.40;99.90;;;;;;5033348;28;20843;-54
2023/09/13 09:25:43;;;;;;;27.20;12.00;;;20.40;99.90;;;;;;5032648;28;20068;-52
2023/09/13 09:28:09;;;;;;;19.33;9.48;;;20.30;99.90;;;;;;5032720;28;20675;-51
2023/09/13 09:30:37;;;;;;;20.10;9.48;;;20.30;99.90;;;;;;5033283;28;20100;-53
2023/09/13 09:33:04;;;;;;;22.65;10.20;;;20.30;99.90;;;;;;5033398;28;20033;-53
2023/09/13 09:35:30;;;;;;;18.48;9.20;;;20.30;99.90;;;;;;5033045;28;20033;-55
2023/09/13 09:37:56;;;;;;;19.88;9.75;;;20.20;99.90;;;;;;5032845;28;20108;-54
2023/09/13 09:40:22;;;;;;;19.92;9.57;;;20.10;99.90;;;;;;5033008;28;20105;-52
2023/09/13 09:42:56;;;;;;;23.90;10.95;;;20.10;99.90;;;;;;5032868;28;20033;-55
2023/09/13 09:45:23;;;;;;;27.73;12.50;;;20.10;99.90;;;;;;5033085;28;20037;-55
2023/09/13 09:47:50;;;;;;;19.85;8.73;;;20.10;99.90;;;;;;5033120;28;20091;-55
2023/09/13 09:50:16;;;;;;;17.55;7.32;;;20.00;99.90;;;;;;5033080;28;20109;-55
2023/09/13 09:52:47;;;;;;;13.60;6.30;;;19.90;99.90;;;;;;5033603;28;20032;-55
2023/09/13 09:55:15;;;;;;;12.23;5.93;;;19.60;99.90;;;;;;5033773;28;20379;-55
2023/09/13 09:57:47;;;;;;;10.02;3.90;;;19.30;99.90;;;;;;5033372;28;20060;-55
2023/09/13 10:00:14;;;;;;;7.22;3.22;;;19.10;99.90;;;;;;5033012;28;20113;-55
2023/09/13 10:02:40;;;;;;;6.57;2.50;;;18.80;99.90;;;;;;5033229;28;20508;-52
2023/09/13 10:05:06;;;;;;;4.30;2.45;;;18.50;99.90;;;;;;5033782;28;20026;-52
2023/09/13 10:07:50;;;;;;;5.90;2.30;;;18.40;99.90;;;;;;5032984;28;20057;-55
2023/09/13 10:10:29;;;;;;;4.78;2.25;;;18.20;99.90;;;;;;5033140;28;20033;-54
2023/09/13 10:12:55;;;;;;;4.60;2.25;;;18.10;99.90;;;;;;5015463;28;20402;-55
2023/09/13 10:15:21;;;;;;;3.85;1.85;;;18.00;99.90;;;;;;5033051;28;20029;-51
2023/09/13 10:17:49;;;;;;;3.90;1.95;;;17.90;99.90;;;;;;5032862;28;20394;-50
2023/09/13 10:20:17;;;;;;;4.13;1.52;;;17.80;99.90;;;;;;5032502;28;20033;-53
2023/09/13 10:22:45;;;;;;;2.92;1.23;;;17.70;99.90;;;;;;5032578;28;20044;-52
2023/09/13 10:25:14;;;;;;;2.15;1.30;;;17.60;99.90;;;;;;5032783;28;20386;-51
2023/09/13 10:27:45;;;;;;;3.47;1.40;;;17.60;99.90;;;;;;5033022;28;20048;-52
2023/09/13 10:30:13;;;;;;;1.70;1.00;;;17.50;99.90;;;;;;5032520;28;20034;-52
2023/09/13 10:32:46;;;;;;;2.37;1.30;;;17.40;99.90;;;;;;5032977;28;20026;-50
2023/09/13 10:35:12;;;;;;;3.40;1.30;;;17.40;99.90;;;;;;5033017;28;20513;-50
2023/09/13 10:38:08;;;;;;;2.08;1.23;;;17.40;99.90;;;;;;5031948;28;20034;-54
2023/09/13 10:41:03;;;;;;;2.47;1.25;;;17.30;99.90;;;;;;5033915;28;20036;-55
2023/09/13 10:43:30;;;;;;;1.65;1.10;;;17.40;99.90;;;;;;5034302;28;20067;-52
2023/09/13 10:45:57;;;;;;;3.08;1.13;;;17.40;99.90;;;;;;5034237;28;20030;-51
2023/09/13 10:48:23;;;;;;;1.98;1.10;;;17.50;99.90;;;;;;5032010;28;20086;-55
2023/09/13 10:50:51;;;;;;;3.20;1.33;;;17.60;99.90;;;;;;5032440;28;20038;-55
2023/09/13 10:53:17;;;;;;;10.77;2.60;;;17.60;99.90;;;;;;5032255;28;20470;-50
2023/09/13 10:55:44;;;;;;;2.75;1.27;;;17.70;99.90;;;;;;5032065;28;20505;-51
2023/09/13 10:58:13;;;;;;;8.38;2.65;;;17.70;99.90;;;;;;5031633;28;20080;-52
2023/09/13 11:00:40;;;;;;;4.50;1.75;;;17.80;99.90;;;;;;5031944;28;20490;-54
2023/09/13 11:03:05;;;;;;;5.70;1.63;;;17.80;99.90;;;;;;5032183;28;20033;-55
2023/09/13 11:05:33;;;;;;;2.53;1.02;;;18.10;99.90;;;;;;5032007;28;20029;-54
2023/09/13 11:07:59;;;;;;;5.07;1.30;;;18.40;99.90;;;;;;5031550;28;20027;-52
2023/09/13 11:10:31;;;;;;;2.05;0.90;;;18.60;99.90;;;;;;5014170;28;20432;-55
2023/09/13 11:13:12;;;;;;;2.95;1.10;;;18.80;99.90;;;;;;5032124;28;20474;-52
2023/09/13 11:15:48;;;;;;;4.57;0.98;;;18.90;99.90;;;;;;5031914;28;20029;-52
2023/09/13 11:18:15;;;;;;;3.78;1.10;;;18.90;99.90;;;;;;5031859;28;20068;-55
2023/09/13 11:20:42;;;;;;;2.90;1.10;;;18.70;99.90;;;;;;5031907;28;20117;-53
2023/09/13 11:23:18;;;;;;;2.13;1.17;;;18.50;99.90;;;;;;5031579;28;20030;-50
2023/09/13 11:25:54;;;;;;;2.40;0.95;;;18.50;99.90;;;;;;5031783;28;20095;-54
2023/09/13 11:28:31;;;;;;;3.45;1.58;;;18.40;99.90;;;;;;5031209;28;20076;-53
2023/09/13 11:30:59;;;;;;;5.10;1.20;;;18.50;99.90;;;;;;5031614;28;20060;-54
2023/09/13 11:33:27;;;;;;;2.80;1.00;;;18.60;99.90;;;;;;5031948;28;20033;-54
2023/09/13 11:35:54;;;;;;;1.77;0.95;;;18.80;99.90;;;;;;5031678;28;20024;-54
2023/09/13 11:38:22;;;;;;;3.47;0.82;;;19.00;99.90;;;;;;5031202;28;20563;-54
2023/09/13 11:40:47;;;;;;;2.78;0.95;;;19.30;99.90;;;;;;5031569;28;20490;-53
2023/09/13 11:43:22;;;;;;;3.10;1.17;;;19.30;99.90;;;;;;5031675;28;20044;-51
2023/09/13 11:45:50;;;;;;;4.90;1.10;;;19.30;99.90;;;;;;5031820;28;20116;-55
2023/09/13 11:48:29;;;;;;;2.60;1.20;;;19.50;99.90;;;;;;5030959;28;20041;-51
2023/09/13 11:50:56;;;;;;;5.95;1.63;;;19.60;99.90;;;;;;5031454;28;20044;-55
2023/09/13 11:53:28;;;;;;;2.47;1.05;;;19.70;99.90;;;;;;5031223;28;20393;-54
2023/09/13 11:55:56;;;;;;;2.35;1.02;;;19.80;99.90;;;;;;5031503;28;20104;-52
2023/09/13 11:58:38;;;;;;;3.60;1.08;;;19.80;99.90;;;;;;5031234;28;20036;-53
2023/09/13 12:01:05;;;;;;;2.90;1.00;;;19.80;99.90;;;;;;5031302;28;20494;-53
2023/09/13 12:03:39;;;;;;;3.22;1.10;;;19.80;99.90;;;;;;5031386;28;20055;-53
2023/09/13 12:06:06;;;;;;;3.85;1.20;;;19.80;99.90;;;;;;5031173;28;20038;-52
2023/09/13 12:08:34;;;;;;;2.50;1.10;;;19.70;99.90;;;;;;5031187;28;20065;-53
2023/09/13 12:11:10;;;;;;;3.17;1.20;;;19.70;99.90;;;;;;5031009;28;20091;-53
2023/09/13 12:13:52;;;;;;;1.52;0.88;;;19.60;99.90;;;;;;5031134;28;20025;-54
2023/09/13 12:16:18;;;;;;;2.53;1.10;;;19.60;99.90;;;;;;5031094;28;20478;-52
2023/09/13 12:18:44;;;;;;;1.80;0.90;;;19.60;99.90;;;;;;5012978;28;20052;-52
2023/09/13 12:21:11;;;;;;;2.40;1.10;;;19.60;99.90;;;;;;5031054;28;20141;-52
2023/09/13 12:23:39;;;;;;;4.85;1.38;;;19.60;99.90;;;;;;5031242;28;20140;-52
2023/09/13 12:26:10;;;;;;;1.85;0.80;;;19.50;99.90;;;;;;5031063;28;20116;-53
2023/09/13 12:28:41;;;;;;;1.73;0.98;;;19.50;99.90;;;;;;5030661;28;20033;-53
2023/09/13 12:31:12;;;;;;;2.58;0.90;;;19.50;99.90;;;;;;5030850;28;20026;-52
2023/09/13 12:33:40;;;;;;;3.05;1.10;;;19.50;99.90;;;;;;5030848;28;20478;-52